Time;durP1;ratioP1;P1;durP2;ratioP2;P2;SDS_P1;SDS_P2;PMS_P1;PMS_P2;Temp;Humidity;BMP_temperature;BMP_pressure;BME280_temperature;BME280_humidity;BME280_pressure;Samples;Min_cycle;Max_cycle;Signal;HPM_P1;HPM_P2
2021/11/19 00:01:20;;;;;;;31.42;15.98;;;5.70;99.90;;;;;;5022041;28;20037;-74
2021/11/19 00:03:47;;;;;;;25.77;16.23;;;5.70;99.90;;;;;;5028237;28;20022;-74
2021/11/19 00:06:13;;;;;;;35.97;17.67;;;5.70;99.90;;;;;;5022959;28;20021;-74
2021/11/19 00:08:39;;;;;;;27.58;16.35;;;5.70;99.90;;;;;;5024032;28;20030;-74
2021/11/19 00:11:07;;;;;;;29.85;16.95;;;5.70;99.90;;;;;;5023173;28;20482;-74
2021/11/19 00:13:33;;;;;;;33.00;17.45;;;5.70;99.90;;;;;;5020660;28;20382;-74
2021/11/19 00:15:59;;;;;;;29.90;16.77;;;5.70;99.90;;;;;;5021764;28;20034;-74
2021/11/19 00:18:25;;;;;;;30.80;16.20;;;5.70;99.90;;;;;;5023846;28;20087;-74
2021/11/19 00:20:51;;;;;;;29.88;15.82;;;5.70;99.90;;;;;;5022816;28;20021;-74
2021/11/19 00:23:17;;;;;;;33.45;16.55;;;5.80;99.90;;;;;;5021247;28;20035;-75
2021/11/19 00:25:44;;;;;;;25.90;15.25;;;5.80;99.90;;;;;;5021957;28;20100;-74
2021/11/19 00:28:10;;;;;;;30.00;15.45;;;5.80;99.90;;;;;;5022061;28;20048;-74
2021/11/19 00:30:38;;;;;;;33.75;16.05;;;5.70;99.90;;;;;;5024049;28;20022;-74
2021/11/19 00:33:04;;;;;;;33.67;18.63;;;5.70;99.90;;;;;;5021114;28;20468;-74
2021/11/19 00:35:31;;;;;;;25.75;15.63;;;5.70;99.90;;;;;;5020641;28;20490;-74
2021/11/19 00:37:57;;;;;;;29.58;16.58;;;5.70;99.90;;;;;;5020689;28;20361;-74
2021/11/19 00:40:34;;;;;;;31.25;16.02;;;5.70;99.90;;;;;;5020296;28;20057;-74
2021/11/19 00:43:00;;;;;;;23.38;14.20;;;5.70;99.90;;;;;;5019891;28;20021;-74
2021/11/19 00:45:29;;;;;;;27.55;16.08;;;5.60;99.90;;;;;;5023172;28;20026;-74
2021/11/19 00:47:56;;;;;;;31.65;15.77;;;5.70;99.90;;;;;;5018867;28;20018;-74
2021/11/19 00:50:32;;;;;;;27.17;15.75;;;5.70;99.90;;;;;;5018381;28;20010;-74
2021/11/19 00:52:58;;;;;;;28.42;16.17;;;5.70;99.90;;;;;;5018483;28;20022;-74
2021/11/19 00:55:24;;;;;;;29.60;16.50;;;5.70;99.90;;;;;;5019268;28;20562;-74
2021/11/19 00:57:50;;;;;;;23.60;15.40;;;5.70;99.90;;;;;;5020202;28;20041;-74
2021/11/19 01:00:20;;;;;;;34.50;19.13;;;5.70;99.90;;;;;;5019773;28;20454;-74
2021/11/19 01:02:46;;;;;;;30.08;15.98;;;5.70;99.90;;;;;;5019569;28;20487;-74
2021/11/19 01:05:12;;;;;;;29.67;15.57;;;5.60;99.90;;;;;;5019690;28;20056;-74
2021/11/19 01:07:38;;;;;;;28.02;14.18;;;5.60;99.90;;;;;;5019433;28;20013;-74
2021/11/19 01:10:14;;;;;;;25.67;14.57;;;5.70;99.90;;;;;;5020865;28;20064;-74
2021/11/19 01:12:41;;;;;;;33.03;14.75;;;5.70;99.90;;;;;;5019265;28;20482;-75
2021/11/19 01:15:12;;;;;;;29.20;15.27;;;5.70;99.90;;;;;;5019077;28;20018;-74
2021/11/19 01:17:43;;;;;;;25.45;13.70;;;5.70;99.90;;;;;;5019153;28;20079;-74
2021/11/19 01:20:09;;;;;;;28.10;14.82;;;5.70;99.90;;;;;;5019965;28;20029;-74
2021/11/19 01:22:37;;;;;;;25.35;15.10;;;5.70;99.90;;;;;;5020021;28;20163;-74
2021/11/19 01:25:07;;;;;;;25.02;15.00;;;5.70;99.90;;;;;;5021754;28;20030;-74
2021/11/19 01:27:32;;;;;;;28.92;16.20;;;5.70;99.90;;;;;;5020651;28;20021;-74
2021/11/19 01:29:58;;;;;;;29.70;15.70;;;5.70;99.90;;;;;;5019547;28;20030;-74
2021/11/19 01:32:25;;;;;;;30.70;17.45;;;5.70;99.90;;;;;;5020382;28;20022;-74
2021/11/19 01:34:51;;;;;;;24.08;15.68;;;5.70;99.90;;;;;;5022302;28;20029;-74
2021/11/19 01:37:18;;;;;;;27.88;16.65;;;5.70;99.90;;;;;;5022421;28;20025;-74
2021/11/19 01:39:45;;;;;;;28.45;16.15;;;5.70;99.90;;;;;;5020409;28;20115;-74
2021/11/19 01:42:22;;;;;;;28.80;14.73;;;5.70;99.90;;;;;;5018184;28;20030;-74
2021/11/19 01:45:23;;;;;;;25.98;16.23;;;5.60;99.90;;;;;;5021027;28;20022;-74
2021/11/19 01:47:53;;;;;;;28.85;15.48;;;5.60;99.90;;;;;;5017922;28;20044;-74
2021/11/19 01:50:53;;;;;;;26.77;15.80;;;5.50;99.90;;;;;;5022235;28;20033;-74
2021/11/19 01:53:40;;;;;;;32.40;15.20;;;5.50;99.90;;;;;;5024196;28;20021;-74
2021/11/19 01:56:13;;;;;;;26.02;15.07;;;5.40;99.90;;;;;;5025018;28;20018;-74
2021/11/19 01:58:46;;;;;;;35.90;18.98;;;5.30;99.90;;;;;;5026058;28;20052;-74
2021/11/19 02:01:17;;;;;;;28.90;16.73;;;5.30;99.90;;;;;;5023456;28;20559;-74
2021/11/19 02:03:48;;;;;;;34.67;17.17;;;5.20;99.90;;;;;;5023970;28;20037;-74
2021/11/19 02:06:16;;;;;;;32.70;16.73;;;5.20;99.90;;;;;;5025501;28;20109;-74
2021/11/19 02:08:44;;;;;;;33.92;15.95;;;5.10;99.90;;;;;;5023643;28;20018;-74
2021/11/19 02:11:51;;;;;;;34.40;16.33;;;5.10;99.90;;;;;;5024014;28;20033;-74
2021/11/19 02:14:46;;;;;;;33.22;16.08;;;5.00;99.90;;;;;;4992380;28;20526;-74
2021/11/19 02:17:13;;;;;;;27.58;15.70;;;5.10;99.90;;;;;;5024394;28;20021;-74
2021/11/19 02:19:53;;;;;;;36.10;18.10;;;5.00;99.90;;;;;;5023916;28;20037;-74
2021/11/19 02:22:24;;;;;;;32.80;16.95;;;5.00;99.90;;;;;;5028560;28;20585;-74
2021/11/19 02:24:57;;;;;;;30.63;16.90;;;4.90;99.90;;;;;;5026109;28;20447;-74
2021/11/19 02:27:36;;;;;;;34.70;18.50;;;4.90;99.90;;;;;;5025430;28;20494;-74
2021/11/19 02:30:09;;;;;;;38.33;18.42;;;4.90;99.90;;;;;;5022113;28;20116;-74
2021/11/19 02:32:39;;;;;;;31.45;18.27;;;4.90;99.90;;;;;;5025437;28;20064;-74
2021/11/19 02:35:08;;;;;;;40.38;17.63;;;4.90;99.90;;;;;;5026516;28;20018;-74
2021/11/19 02:37:39;;;;;;;35.33;19.15;;;4.80;99.90;;;;;;5023996;28;20033;-74
2021/11/19 02:40:17;;;;;;;38.88;19.27;;;4.80;99.90;;;;;;5023509;28;20029;-74
2021/11/19 02:42:51;;;;;;;31.75;18.30;;;4.70;99.90;;;;;;5026201;28;20021;-74
2021/11/19 02:45:24;;;;;;;35.85;18.15;;;4.70;99.90;;;;;;5024460;28;20013;-74
2021/11/19 02:47:50;;;;;;;33.80;18.85;;;4.60;99.90;;;;;;5022341;28;20021;-74
2021/11/19 02:50:19;;;;;;;36.13;17.95;;;4.60;99.90;;;;;;5021742;28;20455;-74
2021/11/19 02:52:47;;;;;;;40.42;19.00;;;4.60;99.90;;;;;;5021023;28;20024;-74
2021/11/19 02:55:32;;;;;;;40.03;19.67;;;4.50;99.90;;;;;;5021725;28;20475;-74
2021/11/19 02:57:58;;;;;;;35.08;17.95;;;4.50;99.90;;;;;;5019260;28;20025;-74
2021/11/19 03:00:28;;;;;;;39.92;18.80;;;4.40;99.90;;;;;;5024364;28;20026;-74
2021/11/19 03:02:54;;;;;;;38.50;19.63;;;4.50;99.90;;;;;;5025072;28;20101;-74
2021/11/19 03:05:23;;;;;;;36.53;19.23;;;4.40;99.90;;;;;;5019493;28;20045;-74
2021/11/19 03:07:49;;;;;;;35.60;19.85;;;4.40;99.90;;;;;;5020344;28;20060;-74
2021/11/19 03:10:25;;;;;;;37.92;18.63;;;4.40;99.90;;;;;;5019154;28;20047;-73
2021/11/19 03:12:52;;;;;;;32.15;18.67;;;4.40;99.90;;;;;;5020315;28;20475;-74
2021/11/19 03:15:25;;;;;;;37.80;18.67;;;4.40;99.90;;;;;;5020998;28;20025;-74
2021/11/19 03:17:51;;;;;;;;;;;4.30;99.90;;;;;;5024440;28;20017;-74
2021/11/19 03:20:19;;;;;;;37.22;19.25;;;4.30;99.90;;;;;;5024676;28;20264;-74
2021/11/19 03:22:45;;;;;;;36.40;19.45;;;4.30;99.90;;;;;;5024716;28;20056;-74
2021/11/19 03:25:14;;;;;;;40.58;21.60;;;4.30;99.90;;;;;;5023923;28;20059;-74
2021/11/19 03:27:42;;;;;;;36.97;19.83;;;4.30;99.90;;;;;;5026108;28;20092;-74
2021/11/19 03:30:11;;;;;;;33.38;18.02;;;4.30;99.90;;;;;;5022570;28;20072;-74
2021/11/19 03:32:37;;;;;;;33.78;19.17;;;4.30;99.90;;;;;;5022600;28;20550;-74
2021/11/19 03:35:06;;;;;;;33.75;19.48;;;4.30;99.90;;;;;;5022056;28;20030;-74
2021/11/19 03:37:32;;;;;;;36.40;20.98;;;4.30;99.90;;;;;;5025436;28;20375;-74
2021/11/19 03:39:58;;;;;;;34.67;19.40;;;4.30;99.90;;;;;;5022272;28;20513;-74
2021/11/19 03:42:24;;;;;;;36.22;18.77;;;4.30;99.90;;;;;;5021709;28;20022;-74
2021/11/19 03:44:55;;;;;;;33.78;18.05;;;4.30;99.90;;;;;;5021982;28;20025;-74
2021/11/19 03:47:28;;;;;;;39.90;20.92;;;4.30;99.90;;;;;;5023287;28;20491;-74
2021/11/19 03:49:55;;;;;;;33.20;19.48;;;4.30;99.90;;;;;;5020717;28;20025;-74
2021/11/19 03:52:31;;;;;;;43.15;21.20;;;4.30;99.90;;;;;;5020816;28;20025;-74
2021/11/19 03:55:00;;;;;;;30.25;18.25;;;4.30;99.90;;;;;;5021914;28;20127;-74
2021/11/19 03:57:27;;;;;;;38.50;21.48;;;4.30;99.90;;;;;;5026581;28;20021;-74
2021/11/19 03:59:55;;;;;;;42.90;21.63;;;4.20;99.90;;;;;;5025641;28;20457;-73
2021/11/19 04:02:24;;;;;;;41.28;21.73;;;4.30;99.90;;;;;;5021944;28;20021;-74
2021/11/19 04:04:50;;;;;;;37.20;19.85;;;4.30;99.90;;;;;;5022515;28;20028;-74
2021/11/19 04:07:17;;;;;;;34.47;19.80;;;4.30;99.90;;;;;;5021624;28;20021;-74
2021/11/19 04:09:44;;;;;;;38.38;19.77;;;4.30;99.90;;;;;;5020040;28;20029;-74
2021/11/19 04:12:15;;;;;;;36.55;19.38;;;4.30;99.90;;;;;;5019548;28;20045;-74
2021/11/19 04:14:41;;;;;;;35.72;18.70;;;4.20;99.90;;;;;;5035762;28;20491;-75
2021/11/19 04:17:07;;;;;;;36.78;20.10;;;4.30;99.90;;;;;;5019456;28;20060;-74
2021/11/19 04:19:33;;;;;;;38.55;19.45;;;4.30;99.90;;;;;;5017883;28;20082;-74
2021/11/19 04:22:05;;;;;;;32.35;18.27;;;4.30;99.90;;;;;;5018930;28;20028;-74
2021/11/19 04:24:36;;;;;;;37.70;19.45;;;4.30;99.90;;;;;;5021057;28;20018;-74
2021/11/19 04:27:05;;;;;;;37.83;20.73;;;4.30;99.90;;;;;;5022099;28;20013;-74
2021/11/19 04:29:30;;;;;;;35.60;19.92;;;4.30;99.90;;;;;;5022711;28;20018;-74
2021/11/19 04:31:57;;;;;;;37.78;19.33;;;4.20;99.90;;;;;;5019848;28;20022;-74
2021/11/19 04:34:22;;;;;;;33.33;19.38;;;4.30;99.90;;;;;;5020748;28;20049;-74
2021/11/19 04:36:49;;;;;;;34.17;19.40;;;4.30;99.90;;;;;;5022330;28;20091;-74
2021/11/19 04:39:15;;;;;;;30.83;18.60;;;4.30;99.90;;;;;;5022274;28;20053;-74
2021/11/19 04:41:41;;;;;;;33.33;18.50;;;4.20;99.90;;;;;;5021137;28;20025;-74
2021/11/19 04:44:09;;;;;;;27.70;15.05;;;4.30;99.90;;;;;;5023293;28;20027;-74
2021/11/19 04:46:35;;;;;;;30.80;18.83;;;4.20;99.90;;;;;;5022768;28;20022;-74
2021/11/19 04:49:01;;;;;;;37.42;20.25;;;4.20;99.90;;;;;;5022420;28;20014;-74
2021/11/19 04:51:31;;;;;;;28.88;17.92;;;4.30;99.90;;;;;;5020416;28;20018;-74
2021/11/19 04:53:57;;;;;;;29.63;16.25;;;4.30;99.90;;;;;;5021185;28;20022;-74
2021/11/19 04:56:23;;;;;;;33.53;17.95;;;4.30;99.90;;;;;;5021927;28;20099;-74
2021/11/19 04:58:49;;;;;;;28.25;18.92;;;4.30;99.90;;;;;;5022585;28;20495;-74
2021/11/19 05:01:18;;;;;;;30.98;15.73;;;4.30;99.90;;;;;;5020012;28;20030;-74
2021/11/19 05:03:45;;;;;;;28.83;15.80;;;4.30;99.90;;;;;;5022584;28;20030;-74
2021/11/19 05:06:11;;;;;;;27.42;16.10;;;4.30;99.90;;;;;;5020553;28;20456;-74
2021/11/19 05:08:37;;;;;;;30.65;18.08;;;4.30;99.90;;;;;;5022485;28;20100;-74
2021/11/19 05:11:05;;;;;;;29.92;17.13;;;4.30;99.90;;;;;;5020623;28;20108;-74
2021/11/19 05:13:34;;;;;;;32.45;16.92;;;4.30;99.90;;;;;;5023843;28;20096;-74
2021/11/19 05:16:02;;;;;;;32.03;18.17;;;4.30;99.90;;;;;;5018584;28;20026;-74
2021/11/19 05:18:29;;;;;;;38.60;18.83;;;4.30;99.90;;;;;;5018367;28;20422;-74
2021/11/19 05:20:56;;;;;;;33.63;18.30;;;4.30;99.90;;;;;;5022258;28;20057;-74
2021/11/19 05:23:22;;;;;;;32.28;18.80;;;4.30;99.90;;;;;;5018041;28;20105;-74
2021/11/19 05:25:49;;;;;;;38.80;20.73;;;4.30;99.90;;;;;;5024350;28;20033;-74
2021/11/19 05:28:17;;;;;;;36.72;19.10;;;4.30;99.90;;;;;;5023368;28;20132;-74
2021/11/19 05:30:43;;;;;;;35.28;17.90;;;4.30;99.90;;;;;;5023991;28;20364;-74
2021/11/19 05:33:12;;;;;;;37.92;22.38;;;4.30;99.90;;;;;;5025791;28;20479;-74
2021/11/19 05:35:38;;;;;;;33.47;18.38;;;4.30;99.90;;;;;;5024545;28;20491;-74
2021/11/19 05:38:05;;;;;;;36.15;18.20;;;4.30;99.90;;;;;;5025277;28;20026;-74
2021/11/19 05:40:31;;;;;;;31.85;17.48;;;4.30;99.90;;;;;;5026242;28;20029;-74
2021/11/19 05:42:57;;;;;;;38.80;20.30;;;4.40;99.90;;;;;;5024938;28;20026;-74
2021/11/19 05:45:25;;;;;;;41.05;19.80;;;4.40;99.90;;;;;;5022654;28;20479;-74
2021/11/19 05:47:51;;;;;;;40.03;19.58;;;4.40;99.90;;;;;;5024038;28;20471;-74
2021/11/19 05:50:19;;;;;;;33.40;18.17;;;4.40;99.90;;;;;;5023936;28;20029;-74
2021/11/19 05:52:45;;;;;;;46.85;23.15;;;4.40;99.90;;;;;;5021037;28;20434;-74
2021/11/19 05:55:16;;;;;;;62.85;25.02;;;4.30;99.90;;;;;;5022778;28;20049;-74
2021/11/19 05:57:41;;;;;;;43.75;21.73;;;4.40;99.90;;;;;;5020463;28;20022;-74
2021/11/19 06:00:20;;;;;;;35.17;19.65;;;4.40;99.90;;;;;;5021206;28;20025;-74
2021/11/19 06:02:46;;;;;;;32.97;19.10;;;4.40;99.90;;;;;;5020655;28;20026;-74
2021/11/19 06:05:11;;;;;;;33.45;18.58;;;4.40;99.90;;;;;;5025648;28;20026;-74
2021/11/19 06:07:38;;;;;;;37.22;19.70;;;4.40;99.90;;;;;;5027217;28;20022;-74
2021/11/19 06:10:06;;;;;;;38.85;19.35;;;4.40;99.90;;;;;;5025101;28;20020;-73
2021/11/19 06:12:42;;;;;;;39.78;21.10;;;4.40;99.90;;;;;;5019793;28;20723;-74
2021/11/19 06:15:23;;;;;;;29.42;16.85;;;4.40;99.90;;;;;;5019924;28;20022;-73
2021/11/19 06:17:52;;;;;;;38.38;20.90;;;4.40;99.90;;;;;;5021649;28;20049;-73
2021/11/19 06:20:28;;;;;;;42.08;20.90;;;4.50;99.90;;;;;;5036675;28;20069;-73
2021/11/19 06:22:59;;;;;;;33.53;19.65;;;4.50;99.90;;;;;;5022854;28;20025;-74
2021/11/19 06:25:29;;;;;;;39.17;20.38;;;4.50;99.90;;;;;;5021463;28;20032;-74
2021/11/19 06:27:59;;;;;;;35.00;20.05;;;4.50;99.90;;;;;;5023767;28;20037;-74
2021/11/19 06:30:25;;;;;;;35.85;19.83;;;4.50;99.90;;;;;;5023485;28;20034;-73
2021/11/19 06:32:51;;;;;;;34.00;18.85;;;4.50;99.90;;;;;;5024365;28;20029;-74
2021/11/19 06:35:17;;;;;;;40.38;21.50;;;4.50;99.90;;;;;;5025019;28;20042;-74
2021/11/19 06:37:43;;;;;;;34.28;19.85;;;4.50;99.90;;;;;;5029070;28;20021;-73
2021/11/19 06:40:13;;;;;;;35.17;19.42;;;4.50;99.90;;;;;;5022185;28;20040;-74
2021/11/19 06:42:39;;;;;;;31.92;18.85;;;4.60;99.90;;;;;;5028715;28;20046;-73
2021/11/19 06:45:06;;;;;;;41.33;20.83;;;4.50;99.90;;;;;;5025096;28;20013;-74
2021/11/19 06:47:31;;;;;;;38.58;20.67;;;4.50;99.90;;;;;;5018911;28;20480;-74
2021/11/19 06:49:57;;;;;;;39.28;22.38;;;4.60;99.90;;;;;;5023949;28;20048;-73
2021/11/19 06:52:23;;;;;;;40.30;21.70;;;4.60;99.90;;;;;;5020084;28;20034;-73
2021/11/19 06:54:49;;;;;;;36.30;21.15;;;4.60;99.90;;;;;;5023934;28;20021;-73
2021/11/19 06:57:15;;;;;;;34.75;18.95;;;4.60;99.90;;;;;;5027991;28;20494;-74
2021/11/19 06:59:43;;;;;;;34.45;17.98;;;4.60;99.90;;;;;;5024231;28;20045;-74
2021/11/19 07:02:10;;;;;;;35.13;19.08;;;4.60;99.90;;;;;;5024409;28;20467;-73
2021/11/19 07:04:36;;;;;;;34.70;19.50;;;4.60;99.90;;;;;;5027166;28;20028;-73
2021/11/19 07:07:03;;;;;;;44.65;23.42;;;4.60;99.90;;;;;;5034388;28;20025;-74
2021/11/19 07:09:29;;;;;;;44.13;21.92;;;4.60;99.90;;;;;;5025125;28;20029;-73
2021/11/19 07:11:55;;;;;;;45.10;23.67;;;4.60;99.90;;;;;;5019570;28;20059;-73
2021/11/19 07:14:21;;;;;;;40.10;23.40;;;4.70;99.90;;;;;;5031559;28;20029;-73
2021/11/19 07:16:47;;;;;;;39.83;21.50;;;4.60;99.90;;;;;;5029931;28;20476;-74
2021/11/19 07:19:12;;;;;;;36.75;19.88;;;4.60;99.90;;;;;;5033856;28;20091;-74
2021/11/19 07:21:39;;;;;;;34.95;19.50;;;4.70;99.90;;;;;;5033560;28;20076;-74
2021/11/19 07:24:06;;;;;;;35.50;19.75;;;4.70;99.90;;;;;;5032147;28;20078;-74
2021/11/19 07:26:32;;;;;;;41.72;21.13;;;4.70;99.90;;;;;;5022073;28;20048;-74
2021/11/19 07:28:58;;;;;;;45.05;22.58;;;4.70;99.90;;;;;;5013942;28;20021;-73
2021/11/19 07:31:24;;;;;;;47.35;26.88;;;4.70;99.90;;;;;;5031170;28;20025;-74
2021/11/19 07:33:50;;;;;;;61.08;29.92;;;4.80;99.90;;;;;;5030023;28;20028;-74
2021/11/19 07:36:19;;;;;;;49.38;24.02;;;4.80;99.90;;;;;;5033048;28;20029;-73
2021/11/19 07:38:45;;;;;;;55.15;30.20;;;4.80;99.90;;;;;;5032418;28;20104;-73
2021/11/19 07:41:14;;;;;;;45.00;25.42;;;4.80;99.90;;;;;;5020807;28;20018;-73
2021/11/19 07:43:40;;;;;;;52.78;27.27;;;4.80;99.90;;;;;;5012445;28;20045;-73
2021/11/19 07:46:11;;;;;;;59.30;30.67;;;4.80;99.90;;;;;;5029738;28;20018;-74
2021/11/19 07:48:39;;;;;;;53.38;26.65;;;4.90;99.90;;;;;;5032648;28;20021;-73
2021/11/19 07:51:08;;;;;;;60.97;28.55;;;4.90;99.90;;;;;;5030200;28;20483;-73
2021/11/19 07:53:34;;;;;;;58.83;25.65;;;4.90;99.90;;;;;;5022785;28;20013;-74
2021/11/19 07:56:01;;;;;;;58.38;27.77;;;4.90;99.90;;;;;;5019527;28;20076;-74
2021/11/19 07:58:28;;;;;;;74.07;30.80;;;4.90;99.90;;;;;;5022027;28;20014;-73
2021/11/19 08:00:55;;;;;;;84.75;33.72;;;5.00;99.90;;;;;;5024719;28;20336;-73
2021/11/19 08:03:21;;;;;;;85.13;35.60;;;5.00;99.90;;;;;;5019654;28;20022;-73
2021/11/19 08:05:51;;;;;;;108.72;40.97;;;5.10;99.90;;;;;;5019645;28;20534;-73
2021/11/19 08:08:17;;;;;;;102.93;44.22;;;5.00;99.90;;;;;;5020725;28;20080;-73
2021/11/19 08:10:44;;;;;;;96.82;35.38;;;5.10;99.90;;;;;;5024701;28;20087;-73
2021/11/19 08:13:10;;;;;;;116.95;42.75;;;5.10;99.90;;;;;;5025006;28;20502;-73
2021/11/19 08:15:36;;;;;;;116.70;40.90;;;5.10;99.90;;;;;;5026068;28;20033;-73
2021/11/19 08:18:09;;;;;;;128.68;46.58;;;5.20;99.90;;;;;;5023880;28;20371;-73
2021/11/19 08:20:43;;;;;;;112.40;43.22;;;5.20;99.90;;;;;;5021252;28;20037;-74
2021/11/19 08:23:39;;;;;;;117.00;46.10;;;5.20;99.90;;;;;;5024222;28;20479;-74
2021/11/19 08:26:18;;;;;;;99.15;36.30;;;5.20;99.90;;;;;;5020747;28;20040;-74
2021/11/19 08:28:45;;;;;;;110.05;41.25;;;5.20;99.90;;;;;;5025220;28;20096;-73
2021/11/19 08:31:14;;;;;;;96.97;34.38;;;5.30;99.90;;;;;;5029857;28;20403;-73
2021/11/19 08:33:40;;;;;;;97.07;32.65;;;5.30;99.90;;;;;;5020661;28;20049;-73
2021/11/19 08:36:07;;;;;;;94.80;37.28;;;5.30;99.90;;;;;;5024548;28;20033;-73
2021/11/19 08:38:32;;;;;;;88.90;33.78;;;5.30;99.90;;;;;;5023694;28;20029;-74
2021/11/19 08:40:58;;;;;;;82.05;33.30;;;5.30;99.90;;;;;;5024581;28;20020;-73
2021/11/19 08:43:31;;;;;;;75.85;31.95;;;5.30;99.90;;;;;;5022599;28;20392;-73
2021/11/19 08:45:59;;;;;;;86.55;34.22;;;5.40;99.90;;;;;;5020178;28;20025;-73
2021/11/19 08:48:27;;;;;;;75.25;30.05;;;5.40;99.90;;;;;;5023027;28;20088;-73
2021/11/19 08:50:54;;;;;;;80.25;34.50;;;5.40;99.90;;;;;;5026199;28;20036;-73
2021/11/19 08:53:19;;;;;;;69.10;31.27;;;5.40;99.90;;;;;;5024603;28;20391;-73
2021/11/19 08:55:49;;;;;;;63.85;28.48;;;5.50;99.90;;;;;;5026266;28;20026;-73
2021/11/19 08:58:30;;;;;;;61.30;29.45;;;5.50;99.90;;;;;;5027373;28;20033;-74
2021/11/19 09:00:58;;;;;;;58.75;28.02;;;5.50;99.90;;;;;;5026629;28;20030;-74
2021/11/19 09:03:25;;;;;;;62.35;30.38;;;5.50;99.90;;;;;;5026655;28;20029;-73
2021/11/19 09:05:51;;;;;;;72.03;30.67;;;5.50;99.90;;;;;;5028438;28;20033;-73
2021/11/19 09:08:20;;;;;;;96.57;41.97;;;5.50;99.90;;;;;;5026269;28;20379;-73
2021/11/19 09:10:47;;;;;;;113.82;54.33;;;5.60;99.90;;;;;;5018542;28;20051;-74
2021/11/19 09:13:13;;;;;;;92.22;44.83;;;5.60;99.90;;;;;;5020600;28;20026;-74
2021/11/19 09:15:41;;;;;;;82.00;35.97;;;5.60;99.90;;;;;;5036338;28;20078;-73
2021/11/19 09:18:57;;;;;;;86.43;40.42;;;5.60;99.90;;;;;;5030512;28;20028;-74
2021/11/19 09:21:30;;;;;;;82.30;35.83;;;5.60;99.90;;;;;;4975344;28;20045;-73
2021/11/19 09:24:09;;;;;;;84.70;38.33;;;5.70;99.90;;;;;;5013050;28;20042;-73
2021/11/19 09:26:41;;;;;;;74.50;34.50;;;5.70;99.90;;;;;;5014766;28;20030;-74
2021/11/19 09:29:11;;;;;;;94.63;37.83;;;5.70;99.90;;;;;;5013506;28;20487;-73
2021/11/19 09:31:38;;;;;;;68.78;32.38;;;5.70;99.90;;;;;;5014411;28;20551;-73
2021/11/19 09:34:05;;;;;;;58.92;27.45;;;5.70;99.90;;;;;;5016488;28;20041;-74
2021/11/19 09:36:31;;;;;;;52.30;25.88;;;5.70;99.90;;;;;;5016390;28;20022;-74
2021/11/19 09:38:56;;;;;;;49.00;25.60;;;5.70;99.90;;;;;;5016421;28;20387;-73
2021/11/19 09:41:28;;;;;;;53.72;28.42;;;5.80;99.90;;;;;;5016387;28;20472;-74
2021/11/19 09:44:13;;;;;;;46.88;24.35;;;5.80;99.90;;;;;;5015172;28;20018;-73
2021/11/19 09:46:48;;;;;;;49.47;24.63;;;5.80;99.90;;;;;;5016349;28;20034;-73
2021/11/19 09:49:22;;;;;;;39.22;21.13;;;5.90;99.90;;;;;;5016359;28;20559;-73
2021/11/19 09:51:57;;;;;;;38.67;21.60;;;5.90;99.90;;;;;;5016285;28;20026;-73
2021/11/19 09:54:50;;;;;;;43.38;22.20;;;5.90;99.90;;;;;;5016200;28;20022;-74
2021/11/19 09:57:42;;;;;;;39.65;21.42;;;6.00;99.90;;;;;;5016256;28;20022;-74
2021/11/19 10:00:17;;;;;;;37.40;21.17;;;6.00;99.90;;;;;;5011717;28;20049;-73
2021/11/19 10:03:22;;;;;;;50.45;25.45;;;6.00;99.90;;;;;;5016681;28;20033;-73
2021/11/19 10:06:26;;;;;;;37.15;21.00;;;6.00;99.90;;;;;;5033423;28;20549;-73
2021/11/19 10:09:23;;;;;;;39.47;22.25;;;6.10;99.90;;;;;;5009180;28;20470;-74
2021/11/19 10:12:11;;;;;;;43.30;22.23;;;6.10;99.90;;;;;;5020839;28;20061;-74
2021/11/19 10:14:58;;;;;;;41.15;22.02;;;6.10;99.90;;;;;;5024336;28;20030;-73
2021/11/19 10:18:15;;;;;;;48.08;24.67;;;6.20;99.90;;;;;;5023576;28;21219;-74
2021/11/19 10:21:06;;;;;;;34.97;19.88;;;6.20;99.90;;;;;;4996458;28;20073;-74
2021/11/19 10:23:42;;;;;;;38.45;22.73;;;6.20;99.90;;;;;;4996902;28;20050;-74
2021/11/19 10:26:18;;;;;;;37.53;20.45;;;6.30;99.90;;;;;;5016112;28;20057;-73
2021/11/19 10:28:48;;;;;;;39.58;21.40;;;6.30;99.90;;;;;;5030590;28;20021;-73
2021/11/19 10:31:18;;;;;;;43.38;23.08;;;6.30;99.90;;;;;;5023093;28;20029;-73
2021/11/19 10:34:02;;;;;;;47.08;23.23;;;6.30;99.90;;;;;;5024669;28;20025;-74
2021/11/19 10:36:40;;;;;;;41.72;23.65;;;6.30;99.90;;;;;;5023414;28;20422;-73
2021/11/19 10:39:34;;;;;;;47.22;26.10;;;6.40;99.90;;;;;;5025951;28;20475;-74
2021/11/19 10:42:21;;;;;;;47.88;24.83;;;6.40;99.90;;;;;;5024498;28;20076;-73
2021/11/19 10:44:58;;;;;;;48.50;24.80;;;6.40;99.90;;;;;;5027699;28;20046;-73
2021/11/19 10:47:33;;;;;;;50.80;24.67;;;6.40;99.90;;;;;;5016807;28;20032;-74
2021/11/19 10:50:32;;;;;;;37.85;22.75;;;6.40;99.90;;;;;;5023146;28;20044;-73
2021/11/19 10:53:15;;;;;;;45.70;25.60;;;6.40;99.90;;;;;;5024496;28;20495;-73
2021/11/19 10:56:02;;;;;;;41.67;23.98;;;6.40;99.90;;;;;;5023451;28;20112;-74
2021/11/19 10:58:41;;;;;;;33.85;19.35;;;6.40;99.90;;;;;;5017273;28;20026;-74
2021/11/19 11:01:07;;;;;;;42.63;24.25;;;6.40;99.90;;;;;;5028624;28;20021;-73
2021/11/19 11:03:39;;;;;;;36.38;23.88;;;6.50;99.90;;;;;;5023755;28;20026;-73
2021/11/19 11:06:08;;;;;;;31.93;17.77;;;6.50;99.90;;;;;;5025156;28;20052;-73
2021/11/19 11:08:37;;;;;;;34.83;20.25;;;6.50;99.90;;;;;;5025470;28;20260;-73
2021/11/19 11:11:30;;;;;;;44.20;24.48;;;6.50;99.90;;;;;;5022296;28;20113;-73
2021/11/19 11:13:57;;;;;;;32.97;18.85;;;6.50;99.90;;;;;;5022553;28;20025;-73
2021/11/19 11:16:35;;;;;;;35.97;21.55;;;6.50;99.90;;;;;;5028212;28;20021;-74
2021/11/19 11:19:22;;;;;;;25.50;17.45;;;6.50;99.90;;;;;;5021578;28;20037;-73
2021/11/19 11:21:54;;;;;;;30.13;18.70;;;6.60;99.90;;;;;;5024416;28;20071;-74
2021/11/19 11:24:23;;;;;;;23.50;15.52;;;6.60;99.90;;;;;;5031690;28;20022;-74
2021/11/19 11:26:54;;;;;;;29.35;17.73;;;6.60;99.90;;;;;;5023612;28;20022;-74
2021/11/19 11:29:36;;;;;;;23.75;15.48;;;6.60;99.90;;;;;;5016112;28;20030;-74
2021/11/19 11:32:30;;;;;;;23.23;15.23;;;6.60;99.90;;;;;;5026749;28;20021;-73
2021/11/19 11:35:03;;;;;;;20.95;13.48;;;6.70;99.90;;;;;;5028566;28;20026;-74
2021/11/19 11:37:48;;;;;;;;;;;6.70;99.90;;;;;;5013779;28;20033;-74
2021/11/19 11:40:36;;;;;;;26.85;16.17;;;6.70;99.90;;;;;;5011668;28;20299;-73
2021/11/19 11:43:39;;;;;;;49.10;23.95;;;6.70;99.90;;;;;;5022801;28;20037;-74
2021/11/19 11:46:26;;;;;;;22.58;14.18;;;6.80;99.90;;;;;;5033026;28;20021;-74
2021/11/19 11:49:16;;;;;;;23.48;13.90;;;6.90;99.90;;;;;;5030914;28;20030;-74
2021/11/19 11:51:54;;;;;;;23.17;14.27;;;6.90;99.90;;;;;;5028602;28;20025;-73
2021/11/19 11:54:35;;;;;;;21.45;14.77;;;6.90;99.90;;;;;;5032247;28;20506;-73
2021/11/19 11:57:22;;;;;;;26.88;15.65;;;6.90;99.90;;;;;;5032316;28;20024;-73
2021/11/19 12:00:06;;;;;;;30.33;18.10;;;6.90;99.90;;;;;;5029135;28;20048;-74
2021/11/19 12:02:52;;;;;;;37.35;22.10;;;6.90;99.90;;;;;;5027839;28;20068;-73
2021/11/19 12:05:21;;;;;;;34.13;20.00;;;6.90;99.90;;;;;;5027804;28;20037;-73
2021/11/19 12:08:14;;;;;;;34.35;21.58;;;7.00;99.90;;;;;;5028126;28;20052;-74
2021/11/19 12:10:59;;;;;;;57.72;31.67;;;7.00;99.90;;;;;;5027913;28;20080;-73
2021/11/19 12:13:46;;;;;;;34.40;20.52;;;7.10;99.90;;;;;;5027879;28;20032;-74
2021/11/19 12:16:30;;;;;;;50.72;24.08;;;7.10;99.90;;;;;;5019840;28;20057;-73
2021/11/19 12:19:25;;;;;;;56.22;25.02;;;7.10;99.90;;;;;;5012650;28;20034;-74
2021/11/19 12:22:06;;;;;;;51.72;21.92;;;7.10;99.90;;;;;;5005004;28;20030;-73
2021/11/19 12:24:53;;;;;;;64.35;31.67;;;7.20;99.90;;;;;;5027453;28;20077;-73
2021/11/19 12:27:25;;;;;;;34.78;20.67;;;7.20;99.90;;;;;;5031995;28;20017;-73
2021/11/19 12:30:19;;;;;;;40.53;21.48;;;7.20;99.90;;;;;;5031555;28;20022;-73
2021/11/19 12:33:05;;;;;;;32.28;17.00;;;7.20;99.90;;;;;;5032147;28;20502;-74
2021/11/19 12:35:49;;;;;;;105.22;51.20;;;7.20;99.90;;;;;;5009852;28;20060;-73
2021/11/19 12:38:28;;;;;;;46.00;23.73;;;7.20;99.90;;;;;;5010940;28;20026;-74
2021/11/19 12:41:15;;;;;;;67.50;29.77;;;7.20;99.90;;;;;;5012000;28;20034;-74
2021/11/19 12:43:48;;;;;;;140.57;58.47;;;7.20;99.90;;;;;;5012104;28;20025;-74
2021/11/19 12:46:28;;;;;;;181.50;70.50;;;7.20;99.90;;;;;;5012319;28;20121;-74
2021/11/19 12:49:28;;;;;;;34.28;18.02;;;7.30;99.90;;;;;;5012135;28;20022;-74
2021/11/19 12:52:00;;;;;;;34.92;20.60;;;7.30;99.90;;;;;;5011541;28;20025;-73
2021/11/19 12:54:53;;;;;;;58.20;25.80;;;7.30;99.90;;;;;;5011505;28;20492;-74
2021/11/19 12:57:41;;;;;;;;;;;7.30;99.90;;;;;;5026069;28;20376;-73
2021/11/19 13:00:34;;;;;;;28.10;15.05;;;7.30;99.90;;;;;;5026080;28;20442;-74
2021/11/19 13:03:30;;;;;;;43.03;20.95;;;7.30;99.90;;;;;;5029400;28;20053;-74
2021/11/19 13:06:15;;;;;;;90.63;40.22;;;7.40;99.90;;;;;;5028781;28;20037;-74